Main page
METAR-TAF:

Airports :

Tel Aviv / Ben Gurion, Israel

Ben Gurion Airport

latitude: 32-00N, longitude: 034-54E, elevation: 40 m

Current weather observation

The report was made 9 minutes ago, at 17:50 UTC
Wind 8 kt from the West/Southwest
Temperature 22°C
Humidity 69%
Pressure 1013 hPa
Visibility 10 km or more
Scattered clouds at a height of 3000 ft

METAR: LLBG 281750Z 25008KT 9999 SCT030 22/16 Q1013 NOSIG

Time: 20:59 (17:59 UTC)

Forecast

The report was made 55 minutes ago, at 17:04 UTC
Forecast valid from 28 at 18 UTC to 29 at 18 UTC
Wind 6 kt from the Southwest
Visibility 10 km or more
Broken clouds at a height of 3000 ft
Becoming
from 28 at 20 UTC to 28 at 22 UTC
Wind 5 kt from the South
Temporary
from 28 at 22 UTC to 29 at 07 UTC
Broken clouds at a height of 2500 ft
light rain
Becoming
from 29 at 07 UTC to 29 at 09 UTC
Wind 12 kt from the West

TAF: LLBG 281704Z 2818/2918 23006KT 9999 BKN030 BECMG 2820/2822 17005KT TEMPO 2822/2907 -RA BKN025 BECMG 2907/2909 27012KT TX26/2912Z TN18/2904Z

METAR-TAF

Weather observations and forecasts of more than 4000 airports (METAR and TAF reports).

The available stations are represented by yellow and red dots on the map.

Hover mouse over dot to see the name of the station.

Then click to see weather observations and forecasts.

To change the map : click on the green buttons with a black cross to zoom in, on the green button with a dash to zoom out, or on the green arrows for adjacent maps.


METAR-TAF: